Time;durP1;ratioP1;P1;durP2;ratioP2;P2;SDS_P1;SDS_P2;PMS_P1;PMS_P2;Temp;Humidity;BMP_temperature;BMP_pressure;BME280_temperature;BME280_humidity;BME280_pressure;Samples;Min_cycle;Max_cycle;Signal;HPM_P1;HPM_P2
2021/12/05 00:24:42;;;;;;;153.07;46.17;;;;;;;2.33;100.00;99817.13;5061705;28;20123;-82
2021/12/05 00:27:16;;;;;;;168.60;51.90;;;;;;;2.39;100.00;99824.75;5061503;28;20154;-83
2021/12/05 00:32:36;;;;;;;93.60;29.42;;;;;;;2.48;100.00;99815.31;5061306;28;20044;-82
2021/12/05 00:47:59;;;;;;;145.75;36.70;;;;;;;2.56;100.00;99828.88;5061108;28;20298;-83
2021/12/05 00:56:06;;;;;;;46.83;13.00;;;;;;;2.42;100.00;99828.13;5061415;28;20048;-83
2021/12/05 01:08:47;;;;;;;93.07;22.50;;;;;;;2.14;100.00;99838.53;5060726;28;20029;-83
2021/12/05 01:16:28;;;;;;;69.78;14.82;;;;;;;2.11;100.00;99832.63;5060246;28;20035;-83
2021/12/05 01:18:54;;;;;;;60.63;13.48;;;;;;;2.07;100.00;99836.88;5062797;28;20024;-83
2021/12/05 01:21:22;;;;;;;84.50;21.13;;;;;;;2.00;100.00;99832.66;5060031;28;20043;-83
2021/12/05 01:23:58;;;;;;;58.80;14.40;;;;;;;1.94;100.00;99833.56;5061064;28;20020;-83
2021/12/05 01:26:30;;;;;;;53.05;10.45;;;;;;;1.91;100.00;99837.84;5068747;28;20082;-83
2021/12/05 01:36:58;;;;;;;53.97;10.55;;;;;;;1.71;100.00;99840.47;5061186;28;20040;-83
2021/12/05 01:53:01;;;;;;;52.55;8.52;;;;;;;1.46;100.00;99826.94;5060361;28;20086;-83
2021/12/05 01:58:13;;;;;;;44.03;8.13;;;;;;;1.35;100.00;99844.00;5060070;28;20151;-83
2021/12/05 02:01:09;;;;;;;40.13;8.30;;;;;;;1.33;100.00;99834.66;5060046;28;20482;-83
2021/12/05 02:09:12;;;;;;;49.63;9.02;;;;;;;1.52;100.00;99826.06;5060370;28;20036;-82
2021/12/05 02:12:03;;;;;;;45.40;8.73;;;;;;;1.51;100.00;99826.91;5059645;28;20478;-83
2021/12/05 02:41:48;;;;;;;36.00;6.82;;;;;;;1.27;100.00;99817.66;5060091;28;20028;-83
2021/12/05 02:44:23;;;;;;;35.42;6.88;;;;;;;1.28;100.00;99809.16;5058871;28;20189;-82
2021/12/05 02:47:05;;;;;;;31.92;7.05;;;;;;;1.25;100.00;99811.69;5077589;28;20017;-83
2021/12/05 02:49:33;;;;;;;30.73;6.00;;;;;;;1.24;100.00;99817.66;5069400;28;20394;-82
2021/12/05 02:52:04;;;;;;;32.08;6.43;;;;;;;1.24;100.00;99802.31;5058659;28;20028;-83
2021/12/05 02:54:37;;;;;;;39.65;6.32;;;;;;;1.21;100.00;99797.25;5063170;28;20032;-83
2021/12/05 02:57:04;;;;;;;34.17;6.68;;;;;;;1.19;100.00;99807.47;5064382;28;20351;-83
2021/12/05 03:02:04;;;;;;;36.63;6.28;;;;;;;1.25;100.00;99806.59;5064781;28;20041;-83
2021/12/05 03:04:32;;;;;;;34.17;6.10;;;;;;;1.25;100.00;99805.72;5063048;28;20028;-83
2021/12/05 03:07:00;;;;;;;36.35;6.20;;;;;;;1.23;100.00;99810.00;5062938;28;20022;-83
2021/12/05 03:09:25;;;;;;;33.28;5.72;;;;;;;1.22;100.00;99811.72;5063369;28;20490;-83
2021/12/05 03:11:52;;;;;;;33.55;6.20;;;;;;;1.20;100.00;99818.53;5062851;28;20021;-83
2021/12/05 03:14:18;;;;;;;32.67;6.50;;;;;;;1.22;100.00;99816.81;5062188;28;20051;-83
2021/12/05 03:16:44;;;;;;;34.72;6.55;;;;;;;1.31;100.00;99821.88;5066340;28;20036;-83
2021/12/05 03:19:10;;;;;;;29.02;5.90;;;;;;;1.43;100.00;99813.34;5068561;28;20598;-83
2021/12/05 03:21:38;;;;;;;33.50;6.10;;;;;;;1.55;100.00;99819.25;5062907;28;20088;-83
2021/12/05 03:24:05;;;;;;;32.15;5.90;;;;;;;1.65;100.00;99814.09;5063688;28;20032;-83
2021/12/05 03:26:34;;;;;;;33.50;5.80;;;;;;;1.77;100.00;99816.63;5062720;28;20755;-83
2021/12/05 03:29:01;;;;;;;24.88;5.97;;;;;;;1.80;100.00;99821.69;5062915;28;20048;-83
2021/12/05 03:31:30;;;;;;;38.72;6.40;;;;;;;1.81;100.00;99814.03;5062377;28;20020;-83
2021/12/05 03:33:57;;;;;;;36.25;6.47;;;;;;;1.89;100.00;99808.88;5063125;28;20024;-83
2021/12/05 03:36:23;;;;;;;34.72;6.35;;;;;;;1.93;100.00;99813.09;5062591;28;20036;-83
2021/12/05 03:38:49;;;;;;;34.55;6.45;;;;;;;1.96;100.00;99810.56;5063529;28;20443;-88
2021/12/05 03:41:16;;;;;;;33.92;6.57;;;;;;;1.94;100.00;99813.09;5062164;28;20059;-88
2021/12/05 03:43:45;;;;;;;29.08;6.88;;;;;;;1.92;100.00;99809.69;5062358;28;20032;-88
2021/12/05 03:46:11;;;;;;;29.80;6.82;;;;;;;1.95;100.00;99809.69;5063010;28;20106;-88
2021/12/05 03:48:45;;;;;;;40.67;6.95;;;;;;;1.98;100.00;99807.09;5061730;28;20029;-88
2021/12/05 03:51:15;;;;;;;32.00;7.38;;;;;;;1.97;100.00;99802.88;5064642;28;20112;-88
2021/12/05 03:53:41;;;;;;;28.65;6.65;;;;;;;1.95;100.00;99796.94;5061642;28;20024;-88
2021/12/05 03:56:08;;;;;;;31.17;6.70;;;;;;;1.98;100.00;99806.25;5062061;28;21340;-88
2021/12/05 03:58:34;;;;;;;30.35;7.05;;;;;;;2.01;100.00;99806.25;5061990;28;20024;-88
2021/12/05 04:01:01;;;;;;;31.23;7.47;;;;;;;2.04;100.00;99803.69;5062216;28;20101;-88
2021/12/05 04:03:28;;;;;;;26.35;6.97;;;;;;;2.08;100.00;99807.06;5062429;28;21267;-88
2021/12/05 04:05:54;;;;;;;36.65;7.75;;;;;;;2.08;100.00;99801.97;5060614;28;20746;-88
2021/12/05 04:08:22;;;;;;;33.25;7.80;;;;;;;2.11;100.00;99801.94;5061735;28;20063;-88
2021/12/05 04:10:52;;;;;;;27.90;7.95;;;;;;;2.14;100.00;99800.22;5060778;28;20016;-88
2021/12/05 04:13:18;;;;;;;28.13;7.65;;;;;;;2.15;100.00;99799.34;5061245;28;20024;-88
2021/12/05 04:15:44;;;;;;;31.15;8.90;;;;;;;2.24;100.00;99801.84;5061963;28;20038;-88
2021/12/05 04:18:10;;;;;;;40.28;8.98;;;;;;;2.27;100.00;99809.50;5062367;28;20048;-88
2021/12/05 04:20:35;;;;;;;33.83;8.38;;;;;;;2.32;100.00;99802.63;5061315;28;20134;-89
2021/12/05 04:23:01;;;;;;;29.08;8.10;;;;;;;2.37;100.00;99798.34;5062474;28;20050;-88
2021/12/05 04:25:27;;;;;;;35.67;8.35;;;;;;;2.45;100.00;99805.13;5060768;28;20372;-88
2021/12/05 04:27:54;;;;;;;37.63;9.30;;;;;;;2.48;100.00;99800.81;5062170;28;20398;-88
2021/12/05 04:30:22;;;;;;;32.67;8.48;;;;;;;2.52;100.00;99801.66;5061362;28;20269;-88
2021/12/05 04:32:48;;;;;;;31.13;8.88;;;;;;;2.57;100.00;99797.34;5060811;28;20039;-88
2021/12/05 04:35:14;;;;;;;30.92;8.82;;;;;;;2.60;100.00;99800.72;5063665;28;20028;-88
2021/12/05 04:37:40;;;;;;;28.20;8.48;;;;;;;2.63;100.00;99804.97;5060919;28;20130;-89
2021/12/05 04:40:07;;;;;;;31.58;9.50;;;;;;;2.65;100.00;99810.94;5061898;28;20173;-83
2021/12/05 04:42:32;;;;;;;31.00;8.30;;;;;;;2.69;100.00;99807.47;5060250;28;20036;-83
2021/12/05 04:45:01;;;;;;;42.08;9.48;;;;;;;2.70;100.00;99806.59;5061494;28;20073;-83
2021/12/05 04:47:26;;;;;;;32.38;8.48;;;;;;;2.71;100.00;99810.88;5061871;28;20124;-83
2021/12/05 04:49:52;;;;;;;29.10;8.95;;;;;;;2.71;100.00;99804.03;5061682;28;20107;-83
2021/12/05 04:52:17;;;;;;;39.88;8.57;;;;;;;2.71;100.00;99800.63;5060719;28;20021;-83
2021/12/05 04:54:42;;;;;;;29.38;8.50;;;;;;;2.74;100.00;99795.47;5061959;28;20021;-83
2021/12/05 04:57:08;;;;;;;39.28;8.68;;;;;;;2.74;100.00;99798.88;5060499;28;20448;-83
2021/12/05 04:59:36;;;;;;;32.88;9.15;;;;;;;2.78;100.00;99799.72;5061412;28;20036;-83
2021/12/05 05:02:05;;;;;;;38.25;9.57;;;;;;;2.81;100.00;99801.38;5060961;28;20423;-83
2021/12/05 05:04:37;;;;;;;41.80;9.25;;;;;;;2.83;100.00;99805.63;5060170;28;20491;-83
2021/12/05 05:07:07;;;;;;;28.30;8.75;;;;;;;2.86;100.00;99799.66;5060788;28;20051;-83
2021/12/05 05:09:32;;;;;;;30.52;8.98;;;;;;;2.87;100.00;99809.84;5061414;28;20028;-88
2021/12/05 05:11:58;;;;;;;33.47;9.30;;;;;;;2.90;100.00;99811.53;5061022;28;20372;-88
2021/12/05 05:14:23;;;;;;;33.47;10.23;;;;;;;2.91;100.00;99800.44;5060113;28;20043;-89
2021/12/05 05:16:54;;;;;;;32.28;8.95;;;;;;;2.90;100.00;99802.16;5060770;28;20433;-88
2021/12/05 05:19:26;;;;;;;31.23;9.15;;;;;;;2.92;100.00;99815.81;5064033;28;20106;-89
2021/12/05 05:22:05;;;;;;;31.52;8.93;;;;;;;2.91;100.00;99808.13;5075223;28;20406;-89
2021/12/05 05:27:50;;;;;;;30.33;9.02;;;;;;;2.94;100.00;99816.63;5060772;28;20041;-89
2021/12/05 05:41:35;;;;;;;27.48;8.25;;;;;;;2.90;100.00;99827.75;5059563;28;20042;-83
2021/12/05 05:44:06;;;;;;;31.08;8.25;;;;;;;2.91;100.00;99828.59;5065003;28;20093;-83
2021/12/05 05:47:10;;;;;;;35.50;8.73;;;;;;;2.91;100.00;99838.84;5063788;28;20031;-83
2021/12/05 05:49:32;;;;;;;31.85;8.95;;;;;;;2.89;100.00;99830.31;5060725;28;20040;-83
2021/12/05 05:51:57;;;;;;;34.03;9.43;;;;;;;2.88;100.00;99839.69;5060376;28;20036;-83
2021/12/05 05:54:23;;;;;;;30.15;8.85;;;;;;;2.88;100.00;99842.25;5060702;28;20031;-83
2021/12/05 05:56:57;;;;;;;30.38;9.02;;;;;;;2.86;100.00;99840.59;5059620;28;20021;-83
2021/12/05 05:59:27;;;;;;;33.60;8.95;;;;;;;2.87;100.00;99845.69;5059490;28;20474;-83
2021/12/05 06:04:19;;;;;;;32.53;8.82;;;;;;;2.88;100.00;99843.97;5059886;28;20036;-83
2021/12/05 06:06:45;;;;;;;27.33;8.27;;;;;;;2.89;100.00;99855.91;5059143;28;20028;-83
2021/12/05 06:09:10;;;;;;;28.73;7.90;;;;;;;2.87;100.00;99852.50;5059618;28;20494;-83
2021/12/05 06:11:36;;;;;;;26.25;7.88;;;;;;;2.89;100.00;99863.59;5060372;28;20039;-83
2021/12/05 06:14:03;;;;;;;26.27;7.68;;;;;;;2.86;100.00;99859.38;5059312;28;20051;-83
2021/12/05 06:16:29;;;;;;;20.15;6.78;;;;;;;2.92;100.00;99861.88;5059343;28;20035;-83
2021/12/05 06:18:55;;;;;;;17.50;5.43;;;;;;;2.85;100.00;99867.91;5057904;28;20032;-83
2021/12/05 06:21:20;;;;;;;17.98;5.88;;;;;;;2.85;100.00;99867.91;5060013;28;20032;-83
2021/12/05 06:23:46;;;;;;;19.02;5.85;;;;;;;2.80;100.00;99871.34;5060119;28;20387;-83
2021/12/05 06:26:14;;;;;;;13.60;5.22;;;;;;;2.76;100.00;99871.38;5060340;28;20033;-83
2021/12/05 06:28:45;;;;;;;17.58;5.70;;;;;;;2.71;100.00;99869.72;5059285;28;20448;-83
2021/12/05 06:47:12;;;;;;;18.42;5.28;;;;;;;2.70;100.00;99903.81;5059066;28;19918;-83
2021/12/05 06:49:39;;;;;;;17.58;5.50;;;;;;;2.70;100.00;99906.38;5059798;28;20032;-83
2021/12/05 06:52:07;;;;;;;16.92;5.88;;;;;;;2.69;100.00;99908.09;5059435;28;20024;-83
2021/12/05 06:54:33;;;;;;;19.63;6.40;;;;;;;2.68;100.00;99905.53;5060721;28;20116;-83
2021/12/05 06:56:58;;;;;;;19.20;6.03;;;;;;;2.68;100.00;99906.38;5074288;28;20119;-83
2021/12/05 06:59:23;;;;;;;22.13;6.82;;;;;;;2.71;100.00;99911.50;5061280;28;20037;-83
2021/12/05 07:01:48;;;;;;;21.02;7.47;;;;;;;2.70;100.00;99914.06;5066331;28;20031;-83
2021/12/05 07:07:01;;;;;;;18.60;6.57;;;;;;;2.74;100.00;99919.13;5048896;28;20107;-83
2021/12/05 07:09:27;;;;;;;22.92;7.30;;;;;;;2.75;100.00;99922.53;5070081;28;20499;-83
2021/12/05 07:12:22;;;;;;;21.80;7.38;;;;;;;2.74;100.00;99928.53;5073365;28;20067;-83
2021/12/05 07:20:10;;;;;;;19.40;7.30;;;;;;;2.82;100.00;99947.22;5059858;28;20049;-82
2021/12/05 07:25:11;;;;;;;30.23;8.70;;;;;;;2.83;100.00;99951.50;5072805;28;20032;-82
2021/12/05 07:43:57;;;;;;;29.25;8.77;;;;;;;2.95;100.00;99963.34;5050205;28;20036;-82
2021/12/05 07:46:23;;;;;;;22.00;8.00;;;;;;;2.96;100.00;99967.63;5079051;28;20401;-82
2021/12/05 07:48:48;;;;;;;30.90;8.82;;;;;;;2.96;100.00;99965.91;5072169;28;20405;-83
2021/12/05 07:56:37;;;;;;;29.45;9.52;;;;;;;2.99;100.00;99972.72;5071514;28;20105;-83
2021/12/05 07:59:14;;;;;;;26.95;8.15;;;;;;;3.01;100.00;99976.94;5070253;28;20020;-83
2021/12/05 08:15:27;;;;;;;27.30;8.57;;;;;;;3.11;100.00;99985.44;5070508;28;20120;-84
2021/12/05 08:17:54;;;;;;;29.70;9.10;;;;;;;3.11;100.00;99986.28;5070848;28;20032;-84
2021/12/05 08:20:25;;;;;;;30.17;8.32;;;;;;;3.15;100.00;99993.06;5070141;28;20139;-84
2021/12/05 08:22:51;;;;;;;29.42;9.55;;;;;;;3.17;100.00;99996.47;5070484;28;20131;-84
2021/12/05 08:25:19;;;;;;;29.52;8.60;;;;;;;3.20;100.00;99992.19;5073557;28;20119;-84
2021/12/05 08:27:49;;;;;;;29.80;8.65;;;;;;;3.21;100.00;99996.47;5064809;28;20020;-84
2021/12/05 08:30:28;;;;;;;30.00;9.27;;;;;;;3.22;100.00;99996.44;5071826;28;20085;-84
2021/12/05 08:33:18;;;;;;;31.75;8.98;;;;;;;3.24;100.00;99999.84;5071889;28;20032;-84
2021/12/05 08:39:19;;;;;;;27.90;9.15;;;;;;;3.26;100.00;99999.84;5070309;28;20089;-84
2021/12/05 09:25:04;;;;;;;30.85;9.50;;;;;;;3.67;100.00;100063.53;5067843;28;20097;-82
2021/12/05 10:08:34;;;;;;;32.58;9.05;;;;;;;4.02;100.00;100133.31;5062378;28;20185;-83
2021/12/05 10:11:18;;;;;;;31.02;9.98;;;;;;;4.07;100.00;100125.56;5069720;28;20039;-82
2021/12/05 10:16:23;;;;;;;33.08;9.57;;;;;;;4.14;100.00;100143.47;5070038;28;20060;-83
2021/12/05 10:27:23;;;;;;;36.05;10.52;;;;;;;4.30;100.00;100139.00;5069815;28;20457;-83
2021/12/05 10:36:00;;;;;;;36.75;9.98;;;;;;;4.64;100.00;100155.75;5069653;28;20600;-82
2021/12/05 10:38:50;;;;;;;39.53;10.52;;;;;;;4.83;100.00;100161.56;5063560;28;20025;-82
2021/12/05 10:44:01;;;;;;;37.20;9.95;;;;;;;4.94;99.50;100166.56;5070252;28;20517;-82
2021/12/05 10:46:29;;;;;;;35.45;10.80;;;;;;;4.90;98.75;100170.06;5069157;28;20024;-82
2021/12/05 10:49:03;;;;;;;37.67;10.52;;;;;;;4.86;98.73;100170.94;5069863;28;20054;-82
2021/12/05 10:51:35;;;;;;;34.05;10.25;;;;;;;4.82;98.75;100174.41;5069692;28;20390;-82
2021/12/05 10:54:10;;;;;;;35.30;10.98;;;;;;;4.80;98.28;100165.88;5069401;28;20103;-82
2021/12/05 10:56:42;;;;;;;35.28;9.98;;;;;;;4.80;98.54;100165.88;5069691;28;20060;-82
2021/12/05 10:59:16;;;;;;;34.10;9.90;;;;;;;4.82;98.78;100166.72;5074044;28;20028;-82
2021/12/05 11:01:49;;;;;;;32.53;9.30;;;;;;;4.79;98.29;100170.16;5070334;28;20032;-81
2021/12/05 11:04:19;;;;;;;33.00;9.55;;;;;;;4.76;98.24;100175.34;5073610;28;20032;-81
2021/12/05 11:06:52;;;;;;;33.15;10.32;;;;;;;4.71;97.39;100177.09;5068178;28;20124;-81
2021/12/05 11:09:28;;;;;;;34.60;9.63;;;;;;;4.71;98.28;100170.25;5082143;28;20376;-81
2021/12/05 11:11:58;;;;;;;31.65;9.27;;;;;;;4.66;98.34;100173.72;5068308;28;20111;-81
2021/12/05 11:14:31;;;;;;;33.78;9.50;;;;;;;4.63;98.24;100179.75;5070828;28;20020;-81
2021/12/05 11:17:06;;;;;;;31.08;9.27;;;;;;;4.57;98.34;100181.53;5073785;28;20027;-81
2021/12/05 11:19:34;;;;;;;;;;;;;;;4.62;99.51;100183.19;5065889;28;20062;-81
2021/12/05 11:22:10;;;;;;;34.38;9.60;;;;;;;4.58;98.84;100186.63;5071889;28;20010;-81
2021/12/05 11:24:40;;;;;;;35.15;9.60;;;;;;;4.61;98.74;100196.03;5068378;28;20422;-81
2021/12/05 11:27:17;;;;;;;32.20;9.40;;;;;;;4.58;98.46;100193.47;5070924;28;20032;-81
2021/12/05 11:29:50;;;;;;;32.67;10.18;;;;;;;4.56;98.66;100201.22;5072450;28;20025;-81
2021/12/05 11:32:20;;;;;;;33.03;9.25;;;;;;;4.50;98.33;100200.44;5077211;28;20020;-82
2021/12/05 11:34:47;;;;;;;35.35;10.23;;;;;;;4.48;98.42;100200.44;5071747;28;20217;-82
2021/12/05 11:37:12;;;;;;;34.53;9.82;;;;;;;4.50;98.41;100200.44;5075977;28;20533;-82
2021/12/05 11:39:39;;;;;;;33.83;10.02;;;;;;;4.51;98.55;100202.97;5081624;28;20020;-82
2021/12/05 11:42:18;;;;;;;34.45;9.88;;;;;;;4.54;98.45;100210.63;5076753;28;20032;-81
2021/12/05 11:44:46;;;;;;;40.83;10.90;;;;;;;4.49;97.73;100209.84;5077843;28;20024;-82
2021/12/05 11:47:22;;;;;;;35.50;11.20;;;;;;;4.50;98.29;100213.25;5076195;28;20305;-81
2021/12/05 11:49:48;;;;;;;37.13;10.68;;;;;;;4.50;98.68;100221.81;5074592;28;20036;-82
2021/12/05 11:52:21;;;;;;;30.85;9.50;;;;;;;4.52;98.58;100221.78;5072034;28;20104;-81
2021/12/05 11:54:46;;;;;;;24.42;8.25;;;;;;;4.50;97.54;100218.38;5069930;28;20566;-81
2021/12/05 11:57:25;;;;;;;24.40;7.18;;;;;;;4.55;97.89;100227.75;5075609;28;20111;-81
2021/12/05 11:59:55;;;;;;;20.48;6.82;;;;;;;4.58;98.05;100227.69;5070618;28;20494;-82
2021/12/05 12:02:27;;;;;;;20.38;6.53;;;;;;;4.60;97.86;100228.53;5071394;28;20020;-81
2021/12/05 12:05:02;;;;;;;18.02;6.88;;;;;;;4.65;97.97;100234.47;5068101;28;20028;-82
2021/12/05 12:07:29;;;;;;;18.42;6.50;;;;;;;4.69;97.61;100228.47;5069083;28;20025;-81
2021/12/05 12:10:15;;;;;;;22.20;6.93;;;;;;;4.74;97.40;100239.53;5071982;28;20036;-82
2021/12/05 12:12:49;;;;;;;19.80;6.68;;;;;;;4.72;97.76;100230.13;5072016;28;20020;-82
2021/12/05 12:15:15;;;;;;;21.97;7.37;;;;;;;4.67;97.20;100225.06;5071180;28;20032;-82
2021/12/05 12:17:42;;;;;;;19.85;7.57;;;;;;;4.72;97.63;100238.69;5071312;28;20291;-82
2021/12/05 12:20:11;;;;;;;24.33;8.15;;;;;;;4.66;97.34;100235.31;5071200;28;20044;-82
2021/12/05 12:22:38;;;;;;;21.90;7.72;;;;;;;4.64;96.80;100237.09;5070245;28;20072;-82
2021/12/05 12:25:10;;;;;;;20.70;7.32;;;;;;;4.60;95.98;100235.38;5066423;28;20068;-81
2021/12/05 12:27:36;;;;;;;18.95;7.25;;;;;;;4.56;96.86;100236.28;5070706;28;20081;-82
2021/12/05 12:30:05;;;;;;;20.13;6.97;;;;;;;4.52;96.96;100238.03;5071568;28;20036;-82
2021/12/05 12:32:36;;;;;;;18.00;6.65;;;;;;;4.51;97.42;100240.59;5071076;28;20081;-82
2021/12/05 12:35:11;;;;;;;17.20;6.93;;;;;;;4.49;97.66;100248.34;5077659;28;20024;-82
2021/12/05 12:37:58;;;;;;;21.00;7.63;;;;;;;4.51;97.83;100251.72;5077190;28;20059;-82
2021/12/05 12:40:51;;;;;;;21.98;7.05;;;;;;;4.52;98.13;100253.41;5075265;28;20024;-90
2021/12/05 12:43:53;;;;;;;16.88;6.95;;;;;;;4.45;97.20;100267.16;5075536;28;20414;-90
2021/12/05 12:46:54;;;;;;;19.92;7.07;;;;;;;4.44;98.29;100260.31;5080032;28;20016;-88
2021/12/05 12:49:20;;;;;;;21.85;7.57;;;;;;;4.45;98.17;100268.88;5082843;28;20102;-91
2021/12/05 12:51:49;;;;;;;20.35;8.00;;;;;;;4.45;98.31;100267.16;5078292;28;20024;-90
2021/12/05 12:54:40;;;;;;;22.63;8.18;;;;;;;4.48;97.74;100268.88;5080932;28;20051;-91
2021/12/05 12:57:16;;;;;;;27.95;8.98;;;;;;;4.53;98.72;100273.09;5079379;28;20020;-90
2021/12/05 12:59:45;;;;;;;27.17;8.45;;;;;;;4.58;98.24;100270.47;5080666;28;20181;-91
2021/12/05 13:05:03;;;;;;;18.65;6.88;;;;;;;4.61;97.55;100278.16;5079879;28;20151;-91
2021/12/05 13:10:41;;;;;;;20.13;7.43;;;;;;;4.65;98.22;100275.53;5080388;28;21018;-82
2021/12/05 13:13:28;;;;;;;17.20;6.10;;;;;;;4.70;97.06;100275.53;5078745;28;20019;-81
2021/12/05 13:16:19;;;;;;;18.58;6.82;;;;;;;4.73;97.01;100281.47;5080877;28;20020;-82
2021/12/05 13:18:48;;;;;;;21.33;6.97;;;;;;;4.81;96.93;100285.69;5080330;28;20773;-82
2021/12/05 13:21:25;;;;;;;21.50;7.40;;;;;;;4.88;96.69;100279.63;5079674;28;20039;-82
2021/12/05 13:23:51;;;;;;;17.40;6.75;;;;;;;4.99;97.35;100285.50;5081859;28;20159;-82
2021/12/05 13:26:42;;;;;;;18.77;7.63;;;;;;;5.04;96.84;100288.88;5079946;28;20166;-81
2021/12/05 13:29:21;;;;;;;15.23;6.28;;;;;;;5.06;94.80;100293.13;5080986;28;20024;-81
2021/12/05 13:31:49;;;;;;;17.08;6.30;;;;;;;5.09;96.06;100293.09;5079025;28;20027;-81
2021/12/05 13:34:43;;;;;;;14.43;6.10;;;;;;;5.11;96.06;100306.78;5078072;28;20391;-82
2021/12/05 13:37:08;;;;;;;16.50;6.45;;;;;;;5.09;95.64;100303.38;5073095;28;20024;-82
2021/12/05 13:39:52;;;;;;;17.05;6.13;;;;;;;5.07;95.12;100312.81;5076229;28;20024;-82
2021/12/05 13:42:37;;;;;;;15.80;6.22;;;;;;;5.06;95.44;100313.69;5076917;28;20486;-81
2021/12/05 13:45:26;;;;;;;18.40;6.57;;;;;;;5.04;95.00;100310.28;5079776;28;20089;-82
2021/12/05 13:47:51;;;;;;;19.83;7.35;;;;;;;5.04;94.74;100319.72;5076939;28;20036;-82
2021/12/05 13:50:25;;;;;;;18.27;6.70;;;;;;;5.04;95.75;100328.28;5081018;28;20049;-82
2021/12/05 13:53:14;;;;;;;17.80;7.13;;;;;;;5.01;95.07;100327.44;5077361;28;20422;-82
2021/12/05 13:55:50;;;;;;;19.83;8.25;;;;;;;4.98;93.80;100330.03;5076713;28;20600;-82
2021/12/05 13:58:38;;;;;;;21.02;7.50;;;;;;;4.94;94.70;100325.78;5080865;28;20395;-82
2021/12/05 14:01:12;;;;;;;20.25;7.30;;;;;;;4.94;95.22;100338.63;5078047;28;20028;-81
2021/12/05 14:03:57;;;;;;;21.38;7.70;;;;;;;4.93;95.62;100342.06;5079118;28;20036;-81
2021/12/05 14:06:39;;;;;;;20.55;8.48;;;;;;;4.87;95.34;100336.97;5076635;28;20062;-81
2021/12/05 14:09:29;;;;;;;27.05;9.82;;;;;;;4.89;95.37;100348.94;5081145;28;20024;-90
2021/12/05 14:12:02;;;;;;;24.30;9.80;;;;;;;4.87;95.19;100352.38;5075660;28;20032;-90
2021/12/05 14:14:34;;;;;;;21.30;8.43;;;;;;;4.83;94.52;100351.56;5076131;28;20148;-91
2021/12/05 14:17:02;;;;;;;26.70;9.85;;;;;;;4.80;94.92;100361.84;5077856;28;20536;-91
2021/12/05 14:19:31;;;;;;;22.17;8.02;;;;;;;4.80;95.12;100358.44;5075418;28;20040;-91
2021/12/05 14:21:58;;;;;;;20.20;7.30;;;;;;;4.80;95.83;100369.56;5071830;28;20021;-91
2021/12/05 14:24:28;;;;;;;17.23;6.82;;;;;;;4.82;95.88;100374.69;5080812;28;20104;-90
2021/12/05 14:26:56;;;;;;;18.95;8.02;;;;;;;4.82;95.26;100375.53;5075940;28;20626;-91
2021/12/05 14:29:25;;;;;;;19.23;7.72;;;;;;;4.79;94.46;100375.53;5076481;28;20209;-91
2021/12/05 14:32:23;;;;;;;20.75;8.10;;;;;;;4.83;94.92;100391.78;5077842;28;20020;-90
2021/12/05 14:34:51;;;;;;;16.05;6.43;;;;;;;4.80;94.97;100392.66;5077894;28;20020;-90
2021/12/05 14:37:19;;;;;;;16.58;6.47;;;;;;;4.75;95.07;100400.41;5077112;28;20112;-91
2021/12/05 14:39:50;;;;;;;19.98;6.60;;;;;;;4.73;95.03;100407.25;5073457;28;20086;-91
2021/12/05 14:42:25;;;;;;;17.83;6.30;;;;;;;4.66;93.81;100418.44;5072692;28;21405;-91
2021/12/05 14:44:54;;;;;;;19.20;6.75;;;;;;;4.60;94.20;100418.47;5078305;28;20031;-91
2021/12/05 14:47:22;;;;;;;17.23;6.18;;;;;;;4.53;94.04;100413.38;5076979;28;20106;-91
2021/12/05 14:49:51;;;;;;;16.77;6.07;;;;;;;4.52;94.87;100422.78;5079609;28;20039;-90
2021/12/05 14:52:26;;;;;;;20.85;6.78;;;;;;;4.50;95.44;100433.94;5080446;28;20025;-91
2021/12/05 14:54:52;;;;;;;20.40;7.28;;;;;;;4.45;94.77;100446.78;5080496;28;20016;-92
2021/12/05 14:57:25;;;;;;;19.98;7.07;;;;;;;4.44;95.59;100451.91;5078643;28;20032;-90
2021/12/05 14:59:58;;;;;;;24.75;9.10;;;;;;;4.38;95.17;100455.38;5080964;28;20028;-88
2021/12/05 15:02:24;;;;;;;25.37;9.40;;;;;;;4.36;96.15;100457.13;5072469;28;20086;-90
2021/12/05 15:04:52;;;;;;;28.35;11.27;;;;;;;4.35;96.64;100458.81;5075941;28;20028;-90
2021/12/05 15:07:23;;;;;;;25.70;10.02;;;;;;;4.36;97.17;100463.09;5078337;28;20047;-88
2021/12/05 15:09:53;;;;;;;27.17;10.25;;;;;;;4.29;96.67;100469.13;5072824;28;20120;-81
2021/12/05 15:12:23;;;;;;;25.77;9.88;;;;;;;4.27;97.38;100472.53;5070465;28;20024;-79
2021/12/05 15:14:53;;;;;;;22.50;9.02;;;;;;;4.23;96.92;100481.94;5071061;28;20082;-80
2021/12/05 15:17:23;;;;;;;23.63;8.70;;;;;;;4.20;97.49;100487.09;5073840;28;20570;-78
2021/12/05 15:19:52;;;;;;;19.02;7.32;;;;;;;4.20;96.94;100494.78;5069576;28;20063;-79
2021/12/05 15:22:19;;;;;;;23.17;7.70;;;;;;;4.19;97.41;100492.22;5075959;28;20024;-81
2021/12/05 15:24:54;;;;;;;30.33;10.45;;;;;;;4.14;96.04;100499.94;5071582;28;20029;-79
2021/12/05 15:27:23;;;;;;;31.60;11.60;;;;;;;4.07;96.50;100499.97;5067873;28;20039;-79
2021/12/05 15:29:52;;;;;;;26.60;9.25;;;;;;;4.03;95.06;100516.19;5071137;28;20543;-81
2021/12/05 15:32:20;;;;;;;28.77;9.27;;;;;;;4.00;96.81;100523.91;5069181;28;20638;-81
2021/12/05 15:34:50;;;;;;;22.30;8.57;;;;;;;4.01;97.55;100523.91;5070061;28;20024;-80
2021/12/05 15:37:15;;;;;;;24.40;8.77;;;;;;;4.02;97.79;100532.47;5071531;28;20024;-82
2021/12/05 15:39:43;;;;;;;24.52;8.10;;;;;;;4.02;98.18;100533.31;5070526;28;20029;-80
2021/12/05 15:42:21;;;;;;;26.23;8.75;;;;;;;4.04;98.06;100541.84;5070335;28;20024;-81
2021/12/05 15:44:49;;;;;;;23.77;7.80;;;;;;;4.01;97.27;100541.88;5071515;28;20052;-81
2021/12/05 15:47:18;;;;;;;22.75;8.65;;;;;;;4.01;97.79;100543.59;5079470;28;20111;-79
2021/12/05 15:50:15;;;;;;;20.17;7.63;;;;;;;3.97;97.29;100553.81;5070247;28;20039;-89
2021/12/05 15:52:54;;;;;;;23.13;8.35;;;;;;;3.95;97.52;100555.56;5070742;28;20419;-90
2021/12/05 15:55:34;;;;;;;22.23;7.28;;;;;;;3.95;97.92;100558.13;5070960;28;20431;-89
2021/12/05 15:58:24;;;;;;;21.15;7.10;;;;;;;3.93;98.27;100556.41;5069770;28;20031;-90
2021/12/05 16:01:03;;;;;;;19.10;7.03;;;;;;;3.95;98.48;100563.25;5068457;28;20417;-91
2021/12/05 16:03:43;;;;;;;17.92;6.45;;;;;;;3.98;98.98;100563.22;5060925;28;20029;-89
2021/12/05 16:06:09;;;;;;;18.95;6.38;;;;;;;4.01;99.16;100559.81;5065039;28;20031;-89
2021/12/05 16:08:35;;;;;;;19.45;6.80;;;;;;;4.06;99.36;100572.63;5071265;28;20438;-90
2021/12/05 16:11:02;;;;;;;19.48;6.43;;;;;;;4.06;99.01;100576.03;5070399;28;20021;-91
2021/12/05 16:13:34;;;;;;;17.80;6.65;;;;;;;4.04;98.67;100582.03;5070851;28;20036;-90
2021/12/05 16:16:08;;;;;;;18.83;6.80;;;;;;;4.00;98.78;100582.91;5072300;28;20028;-90
2021/12/05 16:18:35;;;;;;;20.38;7.13;;;;;;;3.97;98.24;100599.13;5071014;28;20636;-80
2021/12/05 16:21:05;;;;;;;20.33;7.45;;;;;;;3.91;97.91;100602.56;5069001;28;20129;-81
2021/12/05 16:23:37;;;;;;;20.15;7.45;;;;;;;3.88;98.15;100604.28;5070729;28;20048;-80
2021/12/05 16:26:10;;;;;;;20.88;7.20;;;;;;;3.85;98.17;100609.41;5070063;28;20136;-81
2021/12/05 16:28:40;;;;;;;20.17;7.15;;;;;;;3.84;97.97;100610.25;5071463;28;20024;-81
2021/12/05 16:31:19;;;;;;;21.65;7.20;;;;;;;3.87;99.24;100626.50;5069062;28;20098;-79
2021/12/05 16:34:07;;;;;;;21.50;7.15;;;;;;;3.87;98.42;100623.94;5070319;28;20024;-80
2021/12/05 16:36:47;;;;;;;17.63;6.65;;;;;;;3.89;98.86;100631.63;5062782;28;20101;-81
2021/12/05 16:39:17;;;;;;;21.60;7.30;;;;;;;3.88;99.40;100637.63;5062570;28;20027;-80
2021/12/05 16:41:52;;;;;;;18.02;6.45;;;;;;;3.91;99.47;100629.91;5064057;28;20087;-80
2021/12/05 16:44:23;;;;;;;17.33;6.22;;;;;;;3.94;99.44;100630.78;5068511;28;20078;-81
2021/12/05 16:46:55;;;;;;;20.05;6.45;;;;;;;3.95;99.63;100629.94;5069941;28;20376;-82
2021/12/05 16:49:30;;;;;;;18.20;6.22;;;;;;;3.97;99.51;100628.19;5058906;28;20104;-81
2021/12/05 16:52:04;;;;;;;18.45;6.28;;;;;;;3.95;99.15;100627.34;5069134;28;20028;-81
2021/12/05 16:54:33;;;;;;;;;;;;;;;3.98;99.14;100632.47;5066434;28;20027;-80
2021/12/05 16:57:14;;;;;;;20.80;7.00;;;;;;;3.93;99.54;100641.88;5069090;28;19919;-81